sensor_id;sensor_type;location;lat;lon;timestamp;P1;durP1;ratioP1;P2;durP2;ratioP2
11763;SDS011;5939;56.522;14.950;2023-06-14T00:02:11;2.77;;;1.97;;
11763;SDS011;5939;56.522;14.950;2023-06-14T00:04:37;2.17;;;1.97;;
11763;SDS011;5939;56.522;14.950;2023-06-14T00:07:06;2.23;;;1.80;;
11763;SDS011;5939;56.522;14.950;2023-06-14T00:09:33;2.33;;;2.10;;
11763;SDS011;5939;56.522;14.950;2023-06-14T00:12:00;2.23;;;1.90;;
11763;SDS011;5939;56.522;14.950;2023-06-14T00:14:26;2.20;;;1.83;;
11763;SDS011;5939;56.522;14.950;2023-06-14T00:16:52;2.90;;;2.00;;
11763;SDS011;5939;56.522;14.950;2023-06-14T00:19:23;2.10;;;1.87;;
11763;SDS011;5939;56.522;14.950;2023-06-14T00:21:50;2.83;;;2.20;;
11763;SDS011;5939;56.522;14.950;2023-06-14T00:24:17;1.93;;;1.80;;
11763;SDS011;5939;56.522;14.950;2023-06-14T00:26:43;2.67;;;1.83;;
11763;SDS011;5939;56.522;14.950;2023-06-14T00:29:09;2.80;;;2.13;;
11763;SDS011;5939;56.522;14.950;2023-06-14T00:31:35;2.73;;;1.90;;
11763;SDS011;5939;56.522;14.950;2023-06-14T00:34:01;2.10;;;1.90;;
11763;SDS011;5939;56.522;14.950;2023-06-14T00:36:27;2.13;;;1.93;;
11763;SDS011;5939;56.522;14.950;2023-06-14T00:38:53;2.93;;;1.90;;
11763;SDS011;5939;56.522;14.950;2023-06-14T00:41:20;2.33;;;2.10;;
11763;SDS011;5939;56.522;14.950;2023-06-14T00:43:46;2.13;;;1.80;;
11763;SDS011;5939;56.522;14.950;2023-06-14T00:46:12;2.60;;;2.00;;
11763;SDS011;5939;56.522;14.950;2023-06-14T00:48:38;4.27;;;2.10;;
11763;SDS011;5939;56.522;14.950;2023-06-14T00:51:05;3.17;;;2.20;;
11763;SDS011;5939;56.522;14.950;2023-06-14T00:53:31;2.10;;;1.90;;
11763;SDS011;5939;56.522;14.950;2023-06-14T00:56:00;3.30;;;2.23;;
11763;SDS011;5939;56.522;14.950;2023-06-14T00:58:26;2.30;;;2.10;;
11763;SDS011;5939;56.522;14.950;2023-06-14T01:00:53;2.40;;;2.20;;
11763;SDS011;5939;56.522;14.950;2023-06-14T01:03:19;2.33;;;1.90;;
11763;SDS011;5939;56.522;14.950;2023-06-14T01:05:48;2.50;;;2.10;;
11763;SDS011;5939;56.522;14.950;2023-06-14T01:08:19;2.77;;;2.30;;
11763;SDS011;5939;56.522;14.950;2023-06-14T01:11:12;2.67;;;1.97;;
11763;SDS011;5939;56.522;14.950;2023-06-14T01:13:38;2.33;;;2.13;;
11763;SDS011;5939;56.522;14.950;2023-06-14T01:16:05;3.73;;;2.07;;
11763;SDS011;5939;56.522;14.950;2023-06-14T01:18:32;2.63;;;2.03;;
11763;SDS011;5939;56.522;14.950;2023-06-14T01:20:58;2.67;;;2.13;;
11763;SDS011;5939;56.522;14.950;2023-06-14T01:23:25;2.37;;;2.13;;
11763;SDS011;5939;56.522;14.950;2023-06-14T01:25:57;2.87;;;1.83;;
11763;SDS011;5939;56.522;14.950;2023-06-14T01:28:23;2.50;;;2.00;;
11763;SDS011;5939;56.522;14.950;2023-06-14T01:30:50;2.93;;;1.93;;
11763;SDS011;5939;56.522;14.950;2023-06-14T01:33:19;2.23;;;2.00;;
11763;SDS011;5939;56.522;14.950;2023-06-14T01:35:46;2.43;;;1.90;;
11763;SDS011;5939;56.522;14.950;2023-06-14T01:38:12;2.40;;;2.00;;
11763;SDS011;5939;56.522;14.950;2023-06-14T01:40:39;4.13;;;1.90;;
11763;SDS011;5939;56.522;14.950;2023-06-14T01:43:05;1.90;;;1.70;;
11763;SDS011;5939;56.522;14.950;2023-06-14T01:45:32;3.03;;;1.90;;
11763;SDS011;5939;56.522;14.950;2023-06-14T01:47:58;2.10;;;1.90;;
11763;SDS011;5939;56.522;14.950;2023-06-14T01:50:27;2.30;;;2.10;;
11763;SDS011;5939;56.522;14.950;2023-06-14T01:52:54;2.10;;;1.90;;
11763;SDS011;5939;56.522;14.950;2023-06-14T01:55:20;2.47;;;2.27;;
11763;SDS011;5939;56.522;14.950;2023-06-14T01:57:46;2.43;;;2.00;;
11763;SDS011;5939;56.522;14.950;2023-06-14T02:00:13;2.40;;;1.70;;
11763;SDS011;5939;56.522;14.950;2023-06-14T02:02:40;3.27;;;1.87;;
11763;SDS011;5939;56.522;14.950;2023-06-14T02:05:06;1.90;;;1.70;;
11763;SDS011;5939;56.522;14.950;2023-06-14T02:07:32;3.07;;;2.43;;
11763;SDS011;5939;56.522;14.950;2023-06-14T02:09:59;2.00;;;1.87;;
11763;SDS011;5939;56.522;14.950;2023-06-14T02:12:25;2.23;;;2.03;;
11763;SDS011;5939;56.522;14.950;2023-06-14T02:14:51;2.67;;;1.90;;
11763;SDS011;5939;56.522;14.950;2023-06-14T02:17:17;2.10;;;1.90;;
11763;SDS011;5939;56.522;14.950;2023-06-14T02:19:43;2.50;;;1.77;;
11763;SDS011;5939;56.522;14.950;2023-06-14T02:22:09;2.60;;;2.20;;
11763;SDS011;5939;56.522;14.950;2023-06-14T02:24:35;2.13;;;1.90;;
11763;SDS011;5939;56.522;14.950;2023-06-14T02:27:01;2.10;;;1.90;;
11763;SDS011;5939;56.522;14.950;2023-06-14T02:29:28;2.13;;;1.93;;
11763;SDS011;5939;56.522;14.950;2023-06-14T02:31:54;2.10;;;1.87;;
11763;SDS011;5939;56.522;14.950;2023-06-14T02:34:20;2.00;;;1.80;;
11763;SDS011;5939;56.522;14.950;2023-06-14T02:36:47;2.27;;;2.07;;
11763;SDS011;5939;56.522;14.950;2023-06-14T02:39:13;2.20;;;2.00;;
11763;SDS011;5939;56.522;14.950;2023-06-14T02:41:39;2.37;;;2.10;;
11763;SDS011;5939;56.522;14.950;2023-06-14T02:44:05;3.43;;;2.03;;
11763;SDS011;5939;56.522;14.950;2023-06-14T02:46:31;2.10;;;1.90;;
11763;SDS011;5939;56.522;14.950;2023-06-14T02:48:57;2.20;;;2.00;;
11763;SDS011;5939;56.522;14.950;2023-06-14T02:51:24;2.20;;;2.00;;
11763;SDS011;5939;56.522;14.950;2023-06-14T02:53:50;3.17;;;2.20;;
11763;SDS011;5939;56.522;14.950;2023-06-14T02:56:16;1.70;;;1.60;;
11763;SDS011;5939;56.522;14.950;2023-06-14T02:58:42;2.43;;;2.23;;
11763;SDS011;5939;56.522;14.950;2023-06-14T03:01:08;2.20;;;2.00;;
11763;SDS011;5939;56.522;14.950;2023-06-14T03:03:37;2.10;;;1.80;;
11763;SDS011;5939;56.522;14.950;2023-06-14T03:06:04;2.50;;;2.10;;
11763;SDS011;5939;56.522;14.950;2023-06-14T03:08:30;2.27;;;1.80;;
11763;SDS011;5939;56.522;14.950;2023-06-14T03:11:03;2.20;;;1.93;;
11763;SDS011;5939;56.522;14.950;2023-06-14T03:13:30;2.00;;;1.80;;
11763;SDS011;5939;56.522;14.950;2023-06-14T03:15:59;2.40;;;2.20;;
11763;SDS011;5939;56.522;14.950;2023-06-14T03:18:31;2.50;;;1.83;;
11763;SDS011;5939;56.522;14.950;2023-06-14T03:21:00;2.43;;;2.20;;
11763;SDS011;5939;56.522;14.950;2023-06-14T03:23:26;2.47;;;2.20;;
11763;SDS011;5939;56.522;14.950;2023-06-14T03:25:52;2.33;;;1.87;;
11763;SDS011;5939;56.522;14.950;2023-06-14T03:28:19;2.50;;;2.10;;
11763;SDS011;5939;56.522;14.950;2023-06-14T03:30:45;3.20;;;2.13;;
11763;SDS011;5939;56.522;14.950;2023-06-14T03:33:11;2.47;;;2.03;;
11763;SDS011;5939;56.522;14.950;2023-06-14T03:35:37;2.63;;;2.27;;
11763;SDS011;5939;56.522;14.950;2023-06-14T03:38:03;3.03;;;2.53;;
11763;SDS011;5939;56.522;14.950;2023-06-14T03:40:29;2.00;;;1.80;;
11763;SDS011;5939;56.522;14.950;2023-06-14T03:42:56;2.00;;;1.80;;
11763;SDS011;5939;56.522;14.950;2023-06-14T03:45:22;2.30;;;2.10;;
11763;SDS011;5939;56.522;14.950;2023-06-14T03:47:48;3.17;;;2.27;;
11763;SDS011;5939;56.522;14.950;2023-06-14T03:50:15;2.40;;;2.00;;
11763;SDS011;5939;56.522;14.950;2023-06-14T03:52:41;2.63;;;2.10;;
11763;SDS011;5939;56.522;14.950;2023-06-14T03:55:08;2.27;;;2.07;;
11763;SDS011;5939;56.522;14.950;2023-06-14T03:57:35;2.03;;;1.83;;
11763;SDS011;5939;56.522;14.950;2023-06-14T04:00:01;2.20;;;2.00;;
11763;SDS011;5939;56.522;14.950;2023-06-14T04:02:30;2.13;;;1.93;;
11763;SDS011;5939;56.522;14.950;2023-06-14T04:04:56;2.40;;;1.93;;
11763;SDS011;5939;56.522;14.950;2023-06-14T04:07:22;2.00;;;1.80;;
11763;SDS011;5939;56.522;14.950;2023-06-14T04:09:50;2.67;;;2.20;;
11763;SDS011;5939;56.522;14.950;2023-06-14T04:12:16;2.23;;;1.97;;
11763;SDS011;5939;56.522;14.950;2023-06-14T04:14:42;2.93;;;2.10;;
11763;SDS011;5939;56.522;14.950;2023-06-14T04:17:08;2.73;;;1.87;;
11763;SDS011;5939;56.522;14.950;2023-06-14T04:19:34;3.80;;;2.13;;
11763;SDS011;5939;56.522;14.950;2023-06-14T04:22:00;2.40;;;2.20;;
11763;SDS011;5939;56.522;14.950;2023-06-14T04:24:27;2.30;;;2.10;;
11763;SDS011;5939;56.522;14.950;2023-06-14T04:26:59;5.07;;;2.07;;
11763;SDS011;5939;56.522;14.950;2023-06-14T04:29:28;2.30;;;2.00;;
11763;SDS011;5939;56.522;14.950;2023-06-14T04:31:54;3.10;;;2.20;;
11763;SDS011;5939;56.522;14.950;2023-06-14T04:34:27;2.00;;;1.90;;
11763;SDS011;5939;56.522;14.950;2023-06-14T04:36:59;2.43;;;2.23;;
11763;SDS011;5939;56.522;14.950;2023-06-14T04:39:26;2.80;;;2.27;;
11763;SDS011;5939;56.522;14.950;2023-06-14T04:41:52;2.87;;;2.30;;
11763;SDS011;5939;56.522;14.950;2023-06-14T04:44:21;2.00;;;1.80;;
11763;SDS011;5939;56.522;14.950;2023-06-14T04:46:49;2.50;;;1.90;;
11763;SDS011;5939;56.522;14.950;2023-06-14T04:49:16;2.83;;;2.00;;
11763;SDS011;5939;56.522;14.950;2023-06-14T04:51:42;2.27;;;2.07;;
11763;SDS011;5939;56.522;14.950;2023-06-14T04:54:09;2.50;;;2.30;;
11763;SDS011;5939;56.522;14.950;2023-06-14T04:56:39;2.03;;;1.83;;
11763;SDS011;5939;56.522;14.950;2023-06-14T04:59:05;3.40;;;2.10;;
11763;SDS011;5939;56.522;14.950;2023-06-14T05:01:32;3.03;;;2.10;;
11763;SDS011;5939;56.522;14.950;2023-06-14T05:03:58;3.73;;;2.40;;
11763;SDS011;5939;56.522;14.950;2023-06-14T05:06:24;2.20;;;2.00;;
11763;SDS011;5939;56.522;14.950;2023-06-14T05:08:52;2.77;;;2.00;;
11763;SDS011;5939;56.522;14.950;2023-06-14T05:11:18;2.37;;;2.17;;
11763;SDS011;5939;56.522;14.950;2023-06-14T05:13:44;2.20;;;2.00;;
11763;SDS011;5939;56.522;14.950;2023-06-14T05:16:11;3.40;;;2.10;;
11763;SDS011;5939;56.522;14.950;2023-06-14T05:18:37;2.57;;;2.00;;
11763;SDS011;5939;56.522;14.950;2023-06-14T05:21:05;1.90;;;1.80;;
11763;SDS011;5939;56.522;14.950;2023-06-14T05:23:31;2.20;;;1.97;;
11763;SDS011;5939;56.522;14.950;2023-06-14T05:25:57;3.07;;;2.03;;
11763;SDS011;5939;56.522;14.950;2023-06-14T05:28:23;2.57;;;2.20;;
11763;SDS011;5939;56.522;14.950;2023-06-14T05:30:50;3.20;;;2.23;;
11763;SDS011;5939;56.522;14.950;2023-06-14T05:33:17;3.20;;;2.43;;
11763;SDS011;5939;56.522;14.950;2023-06-14T05:35:43;2.57;;;2.07;;
11763;SDS011;5939;56.522;14.950;2023-06-14T05:38:09;2.23;;;1.97;;
11763;SDS011;5939;56.522;14.950;2023-06-14T05:40:35;3.37;;;2.37;;
11763;SDS011;5939;56.522;14.950;2023-06-14T05:43:01;2.57;;;2.20;;
11763;SDS011;5939;56.522;14.950;2023-06-14T05:45:27;4.37;;;2.40;;
11763;SDS011;5939;56.522;14.950;2023-06-14T05:47:53;2.67;;;2.07;;
11763;SDS011;5939;56.522;14.950;2023-06-14T05:50:20;2.33;;;2.13;;
11763;SDS011;5939;56.522;14.950;2023-06-14T05:52:46;3.50;;;2.43;;
11763;SDS011;5939;56.522;14.950;2023-06-14T05:55:12;1.93;;;1.80;;
11763;SDS011;5939;56.522;14.950;2023-06-14T05:57:38;2.20;;;2.00;;
11763;SDS011;5939;56.522;14.950;2023-06-14T06:00:04;2.47;;;1.80;;
11763;SDS011;5939;56.522;14.950;2023-06-14T06:02:40;2.83;;;2.43;;
11763;SDS011;5939;56.522;14.950;2023-06-14T06:05:07;2.37;;;2.03;;
11763;SDS011;5939;56.522;14.950;2023-06-14T06:07:33;2.37;;;2.10;;
11763;SDS011;5939;56.522;14.950;2023-06-14T06:09:59;3.23;;;2.07;;
11763;SDS011;5939;56.522;14.950;2023-06-14T06:12:25;2.67;;;2.10;;
11763;SDS011;5939;56.522;14.950;2023-06-14T06:14:51;2.30;;;2.10;;
11763;SDS011;5939;56.522;14.950;2023-06-14T06:17:17;2.13;;;1.93;;
11763;SDS011;5939;56.522;14.950;2023-06-14T06:19:43;2.10;;;1.90;;
11763;SDS011;5939;56.522;14.950;2023-06-14T06:22:09;3.97;;;2.23;;
11763;SDS011;5939;56.522;14.950;2023-06-14T06:24:35;2.47;;;2.20;;
11763;SDS011;5939;56.522;14.950;2023-06-14T06:27:01;2.90;;;2.30;;
11763;SDS011;5939;56.522;14.950;2023-06-14T06:29:27;3.47;;;2.07;;
11763;SDS011;5939;56.522;14.950;2023-06-14T06:31:54;2.10;;;1.90;;
11763;SDS011;5939;56.522;14.950;2023-06-14T06:34:21;2.13;;;1.93;;
11763;SDS011;5939;56.522;14.950;2023-06-14T06:36:47;2.57;;;2.13;;
11763;SDS011;5939;56.522;14.950;2023-06-14T06:39:13;2.53;;;1.70;;
11763;SDS011;5939;56.522;14.950;2023-06-14T06:41:40;3.27;;;2.10;;
11763;SDS011;5939;56.522;14.950;2023-06-14T06:44:06;2.20;;;2.00;;
11763;SDS011;5939;56.522;14.950;2023-06-14T06:46:33;3.13;;;1.90;;
11763;SDS011;5939;56.522;14.950;2023-06-14T06:49:00;3.20;;;2.20;;
11763;SDS011;5939;56.522;14.950;2023-06-14T06:51:26;3.53;;;2.03;;
11763;SDS011;5939;56.522;14.950;2023-06-14T06:53:52;2.97;;;2.10;;
11763;SDS011;5939;56.522;14.950;2023-06-14T06:56:19;4.27;;;2.20;;
11763;SDS011;5939;56.522;14.950;2023-06-14T06:58:45;2.53;;;2.13;;
11763;SDS011;5939;56.522;14.950;2023-06-14T07:01:11;3.00;;;2.17;;
11763;SDS011;5939;56.522;14.950;2023-06-14T07:03:38;3.20;;;2.20;;
11763;SDS011;5939;56.522;14.950;2023-06-14T07:06:04;2.70;;;2.20;;
11763;SDS011;5939;56.522;14.950;2023-06-14T07:08:30;4.63;;;2.00;;
11763;SDS011;5939;56.522;14.950;2023-06-14T07:10:56;4.13;;;2.43;;
11763;SDS011;5939;56.522;14.950;2023-06-14T07:13:23;3.50;;;2.20;;
11763;SDS011;5939;56.522;14.950;2023-06-14T07:15:48;2.90;;;2.30;;
11763;SDS011;5939;56.522;14.950;2023-06-14T07:18:14;2.90;;;2.10;;
11763;SDS011;5939;56.522;14.950;2023-06-14T07:20:40;2.80;;;2.20;;
11763;SDS011;5939;56.522;14.950;2023-06-14T07:23:08;3.67;;;2.20;;
11763;SDS011;5939;56.522;14.950;2023-06-14T07:25:34;2.67;;;2.47;;
11763;SDS011;5939;56.522;14.950;2023-06-14T07:28:00;3.27;;;2.10;;
11763;SDS011;5939;56.522;14.950;2023-06-14T07:30:26;2.67;;;2.30;;
11763;SDS011;5939;56.522;14.950;2023-06-14T07:32:52;3.17;;;2.00;;
11763;SDS011;5939;56.522;14.950;2023-06-14T07:35:19;4.73;;;2.13;;
11763;SDS011;5939;56.522;14.950;2023-06-14T07:37:45;5.13;;;2.20;;
11763;SDS011;5939;56.522;14.950;2023-06-14T07:40:12;4.73;;;2.73;;
11763;SDS011;5939;56.522;14.950;2023-06-14T07:42:38;4.07;;;2.20;;
11763;SDS011;5939;56.522;14.950;2023-06-14T07:45:05;3.10;;;2.53;;
11763;SDS011;5939;56.522;14.950;2023-06-14T07:47:31;2.50;;;2.27;;
11763;SDS011;5939;56.522;14.950;2023-06-14T07:49:57;3.40;;;2.37;;
11763;SDS011;5939;56.522;14.950;2023-06-14T07:52:23;3.53;;;2.33;;
11763;SDS011;5939;56.522;14.950;2023-06-14T07:54:50;3.77;;;2.37;;
11763;SDS011;5939;56.522;14.950;2023-06-14T07:57:16;3.63;;;2.60;;
11763;SDS011;5939;56.522;14.950;2023-06-14T07:59:42;3.00;;;2.40;;
11763;SDS011;5939;56.522;14.950;2023-06-14T08:02:08;3.63;;;2.30;;
11763;SDS011;5939;56.522;14.950;2023-06-14T08:04:34;2.60;;;2.40;;
11763;SDS011;5939;56.522;14.950;2023-06-14T08:07:00;3.23;;;2.47;;
11763;SDS011;5939;56.522;14.950;2023-06-14T08:09:26;2.63;;;2.43;;
11763;SDS011;5939;56.522;14.950;2023-06-14T08:11:53;2.60;;;2.40;;
11763;SDS011;5939;56.522;14.950;2023-06-14T08:14:20;4.10;;;2.57;;
11763;SDS011;5939;56.522;14.950;2023-06-14T08:16:46;5.63;;;2.47;;
11763;SDS011;5939;56.522;14.950;2023-06-14T08:19:12;2.90;;;2.17;;
11763;SDS011;5939;56.522;14.950;2023-06-14T08:21:38;3.80;;;2.93;;
11763;SDS011;5939;56.522;14.950;2023-06-14T08:24:05;3.43;;;2.10;;
11763;SDS011;5939;56.522;14.950;2023-06-14T08:26:31;3.07;;;2.57;;
11763;SDS011;5939;56.522;14.950;2023-06-14T08:28:57;2.53;;;2.30;;
11763;SDS011;5939;56.522;14.950;2023-06-14T08:31:23;4.60;;;2.60;;
11763;SDS011;5939;56.522;14.950;2023-06-14T08:33:50;3.47;;;2.50;;
11763;SDS011;5939;56.522;14.950;2023-06-14T08:36:16;4.17;;;2.40;;
11763;SDS011;5939;56.522;14.950;2023-06-14T08:38:41;4.03;;;2.20;;
11763;SDS011;5939;56.522;14.950;2023-06-14T08:41:07;4.77;;;2.57;;
11763;SDS011;5939;56.522;14.950;2023-06-14T08:43:36;3.70;;;2.37;;
11763;SDS011;5939;56.522;14.950;2023-06-14T08:46:02;3.23;;;2.43;;
11763;SDS011;5939;56.522;14.950;2023-06-14T08:48:29;3.33;;;2.20;;
11763;SDS011;5939;56.522;14.950;2023-06-14T08:50:59;5.20;;;2.27;;
11763;SDS011;5939;56.522;14.950;2023-06-14T08:53:30;3.40;;;2.60;;
11763;SDS011;5939;56.522;14.950;2023-06-14T08:55:59;2.87;;;2.43;;
11763;SDS011;5939;56.522;14.950;2023-06-14T08:58:27;4.27;;;2.60;;
11763;SDS011;5939;56.522;14.950;2023-06-14T09:01:00;3.13;;;2.60;;
11763;SDS011;5939;56.522;14.950;2023-06-14T09:03:27;4.73;;;2.73;;
11763;SDS011;5939;56.522;14.950;2023-06-14T09:05:59;3.67;;;2.60;;
11763;SDS011;5939;56.522;14.950;2023-06-14T09:08:25;3.93;;;2.50;;
11763;SDS011;5939;56.522;14.950;2023-06-14T09:10:55;2.60;;;2.40;;
11763;SDS011;5939;56.522;14.950;2023-06-14T09:13:21;3.97;;;2.60;;
11763;SDS011;5939;56.522;14.950;2023-06-14T09:15:47;4.17;;;2.60;;
11763;SDS011;5939;56.522;14.950;2023-06-14T09:18:12;3.10;;;2.50;;
11763;SDS011;5939;56.522;14.950;2023-06-14T09:20:38;3.40;;;2.47;;
11763;SDS011;5939;56.522;14.950;2023-06-14T09:23:04;3.43;;;2.63;;
11763;SDS011;5939;56.522;14.950;2023-06-14T09:25:30;2.63;;;2.43;;
11763;SDS011;5939;56.522;14.950;2023-06-14T09:27:56;4.70;;;2.80;;
11763;SDS011;5939;56.522;14.950;2023-06-14T09:30:21;2.60;;;2.40;;
11763;SDS011;5939;56.522;14.950;2023-06-14T09:32:47;3.17;;;2.50;;
11763;SDS011;5939;56.522;14.950;2023-06-14T09:35:14;2.90;;;2.60;;
11763;SDS011;5939;56.522;14.950;2023-06-14T09:37:43;3.50;;;2.40;;
11763;SDS011;5939;56.522;14.950;2023-06-14T09:40:09;2.70;;;2.50;;
11763;SDS011;5939;56.522;14.950;2023-06-14T09:42:36;3.47;;;2.60;;
11763;SDS011;5939;56.522;14.950;2023-06-14T09:45:03;3.07;;;2.53;;
11763;SDS011;5939;56.522;14.950;2023-06-14T09:47:29;3.73;;;2.80;;
11763;SDS011;5939;56.522;14.950;2023-06-14T09:49:55;3.40;;;2.70;;
11763;SDS011;5939;56.522;14.950;2023-06-14T09:52:21;3.70;;;2.80;;
11763;SDS011;5939;56.522;14.950;2023-06-14T09:54:53;3.00;;;2.80;;
11763;SDS011;5939;56.522;14.950;2023-06-14T09:57:21;5.70;;;3.10;;
11763;SDS011;5939;56.522;14.950;2023-06-14T09:59:48;2.73;;;2.53;;
11763;SDS011;5939;56.522;14.950;2023-06-14T10:02:52;3.40;;;2.90;;
11763;SDS011;5939;56.522;14.950;2023-06-14T10:05:15;3.60;;;2.90;;
11763;SDS011;5939;56.522;14.950;2023-06-14T10:10:17;4.83;;;3.20;;
11763;SDS011;5939;56.522;14.950;2023-06-14T10:12:43;3.10;;;2.80;;
11763;SDS011;5939;56.522;14.950;2023-06-14T10:15:10;3.67;;;2.90;;
11763;SDS011;5939;56.522;14.950;2023-06-14T10:17:53;3.07;;;2.67;;
11763;SDS011;5939;56.522;14.950;2023-06-14T10:23:17;3.90;;;2.97;;
11763;SDS011;5939;56.522;14.950;2023-06-14T10:25:49;3.53;;;2.80;;
11763;SDS011;5939;56.522;14.950;2023-06-14T10:28:17;3.30;;;2.93;;
11763;SDS011;5939;56.522;14.950;2023-06-14T10:33:34;5.87;;;2.97;;
11763;SDS011;5939;56.522;14.950;2023-06-14T10:36:10;4.60;;;2.70;;
11763;SDS011;5939;56.522;14.950;2023-06-14T10:39:04;3.93;;;2.80;;
11763;SDS011;5939;56.522;14.950;2023-06-14T10:41:36;3.00;;;2.70;;
11763;SDS011;5939;56.522;14.950;2023-06-14T10:46:37;3.47;;;2.90;;
11763;SDS011;5939;56.522;14.950;2023-06-14T10:49:16;3.63;;;2.80;;
11763;SDS011;5939;56.522;14.950;2023-06-14T10:51:55;4.07;;;2.73;;
11763;SDS011;5939;56.522;14.950;2023-06-14T10:54:23;4.30;;;3.30;;
11763;SDS011;5939;56.522;14.950;2023-06-14T10:56:51;2.80;;;2.47;;
11763;SDS011;5939;56.522;14.950;2023-06-14T10:59:18;3.60;;;2.80;;
11763;SDS011;5939;56.522;14.950;2023-06-14T11:04:26;3.63;;;3.07;;
11763;SDS011;5939;56.522;14.950;2023-06-14T11:07:35;4.83;;;2.70;;
11763;SDS011;5939;56.522;14.950;2023-06-14T11:10:40;3.30;;;2.80;;
11763;SDS011;5939;56.522;14.950;2023-06-14T11:13:08;3.93;;;2.70;;
11763;SDS011;5939;56.522;14.950;2023-06-14T11:15:34;3.07;;;2.60;;
11763;SDS011;5939;56.522;14.950;2023-06-14T11:18:05;3.63;;;2.80;;
11763;SDS011;5939;56.522;14.950;2023-06-14T11:20:33;3.10;;;2.80;;
11763;SDS011;5939;56.522;14.950;2023-06-14T11:23:00;4.20;;;2.93;;
11763;SDS011;5939;56.522;14.950;2023-06-14T11:25:26;3.13;;;2.60;;
11763;SDS011;5939;56.522;14.950;2023-06-14T11:27:55;3.43;;;3.13;;
11763;SDS011;5939;56.522;14.950;2023-06-14T11:30:22;3.20;;;2.90;;
11763;SDS011;5939;56.522;14.950;2023-06-14T11:32:49;3.60;;;2.97;;
11763;SDS011;5939;56.522;14.950;2023-06-14T11:35:17;3.67;;;2.73;;
11763;SDS011;5939;56.522;14.950;2023-06-14T11:37:43;3.67;;;3.23;;
11763;SDS011;5939;56.522;14.950;2023-06-14T11:40:09;3.50;;;2.90;;
11763;SDS011;5939;56.522;14.950;2023-06-14T11:42:37;2.93;;;2.73;;
11763;SDS011;5939;56.522;14.950;2023-06-14T11:45:04;4.07;;;3.23;;
11763;SDS011;5939;56.522;14.950;2023-06-14T11:47:32;3.17;;;2.63;;
11763;SDS011;5939;56.522;14.950;2023-06-14T11:50:05;3.37;;;3.00;;
11763;SDS011;5939;56.522;14.950;2023-06-14T11:52:33;3.00;;;2.70;;
11763;SDS011;5939;56.522;14.950;2023-06-14T11:54:59;5.83;;;2.83;;
11763;SDS011;5939;56.522;14.950;2023-06-14T11:57:26;2.83;;;2.57;;
11763;SDS011;5939;56.522;14.950;2023-06-14T11:59:51;4.00;;;3.10;;
11763;SDS011;5939;56.522;14.950;2023-06-14T12:02:19;3.10;;;2.80;;
11763;SDS011;5939;56.522;14.950;2023-06-14T12:04:47;3.10;;;2.80;;
11763;SDS011;5939;56.522;14.950;2023-06-14T12:07:14;3.00;;;2.80;;
11763;SDS011;5939;56.522;14.950;2023-06-14T12:09:42;5.10;;;3.10;;
11763;SDS011;5939;56.522;14.950;2023-06-14T12:12:34;3.93;;;3.07;;
11763;SDS011;5939;56.522;14.950;2023-06-14T12:15:02;5.20;;;3.00;;
11763;SDS011;5939;56.522;14.950;2023-06-14T12:17:31;2.80;;;2.60;;
11763;SDS011;5939;56.522;14.950;2023-06-14T12:19:58;3.13;;;2.80;;
11763;SDS011;5939;56.522;14.950;2023-06-14T12:22:23;2.80;;;2.60;;
11763;SDS011;5939;56.522;14.950;2023-06-14T12:24:49;3.97;;;2.97;;
11763;SDS011;5939;56.522;14.950;2023-06-14T12:27:15;4.00;;;2.83;;
11763;SDS011;5939;56.522;14.950;2023-06-14T12:29:45;3.53;;;3.13;;
11763;SDS011;5939;56.522;14.950;2023-06-14T12:32:11;3.57;;;3.17;;
11763;SDS011;5939;56.522;14.950;2023-06-14T12:34:37;4.47;;;2.90;;
11763;SDS011;5939;56.522;14.950;2023-06-14T12:37:02;3.47;;;2.90;;
11763;SDS011;5939;56.522;14.950;2023-06-14T12:39:29;4.33;;;3.37;;
11763;SDS011;5939;56.522;14.950;2023-06-14T12:41:56;3.53;;;3.23;;
11763;SDS011;5939;56.522;14.950;2023-06-14T12:44:22;3.47;;;3.17;;
11763;SDS011;5939;56.522;14.950;2023-06-14T12:46:48;4.03;;;3.20;;
11763;SDS011;5939;56.522;14.950;2023-06-14T12:49:16;4.73;;;3.43;;
11763;SDS011;5939;56.522;14.950;2023-06-14T12:51:42;4.03;;;3.73;;
11763;SDS011;5939;56.522;14.950;2023-06-14T12:54:08;4.60;;;3.57;;
11763;SDS011;5939;56.522;14.950;2023-06-14T12:56:34;5.13;;;3.57;;
11763;SDS011;5939;56.522;14.950;2023-06-14T12:58:59;4.33;;;3.60;;
11763;SDS011;5939;56.522;14.950;2023-06-14T13:01:25;4.23;;;3.50;;
11763;SDS011;5939;56.522;14.950;2023-06-14T13:03:51;4.30;;;3.57;;
11763;SDS011;5939;56.522;14.950;2023-06-14T13:06:20;3.67;;;3.37;;
11763;SDS011;5939;56.522;14.950;2023-06-14T13:08:47;5.10;;;3.93;;
11763;SDS011;5939;56.522;14.950;2023-06-14T13:11:13;4.50;;;4.10;;
11763;SDS011;5939;56.522;14.950;2023-06-14T13:13:39;3.90;;;3.43;;
11763;SDS011;5939;56.522;14.950;2023-06-14T13:16:05;4.33;;;3.60;;
11763;SDS011;5939;56.522;14.950;2023-06-14T13:18:31;4.90;;;3.50;;
11763;SDS011;5939;56.522;14.950;2023-06-14T13:20:56;5.03;;;3.57;;
11763;SDS011;5939;56.522;14.950;2023-06-14T13:23:22;4.53;;;3.77;;
11763;SDS011;5939;56.522;14.950;2023-06-14T13:25:48;4.37;;;3.93;;
11763;SDS011;5939;56.522;14.950;2023-06-14T13:28:16;4.87;;;4.03;;
11763;SDS011;5939;56.522;14.950;2023-06-14T13:30:41;4.53;;;3.63;;
11763;SDS011;5939;56.522;14.950;2023-06-14T13:33:07;4.23;;;3.83;;
11763;SDS011;5939;56.522;14.950;2023-06-14T13:35:33;4.57;;;3.50;;
11763;SDS011;5939;56.522;14.950;2023-06-14T13:37:58;7.50;;;4.03;;
11763;SDS011;5939;56.522;14.950;2023-06-14T13:40:24;4.10;;;3.30;;
11763;SDS011;5939;56.522;14.950;2023-06-14T13:42:50;4.00;;;3.70;;
11763;SDS011;5939;56.522;14.950;2023-06-14T13:45:15;4.60;;;3.60;;
11763;SDS011;5939;56.522;14.950;2023-06-14T13:47:41;5.23;;;3.50;;
11763;SDS011;5939;56.522;14.950;2023-06-14T13:50:07;3.73;;;3.43;;
11763;SDS011;5939;56.522;14.950;2023-06-14T13:52:33;4.60;;;3.57;;
11763;SDS011;5939;56.522;14.950;2023-06-14T13:55:00;5.33;;;3.73;;
11763;SDS011;5939;56.522;14.950;2023-06-14T13:57:25;5.43;;;4.13;;
11763;SDS011;5939;56.522;14.950;2023-06-14T13:59:51;6.70;;;3.73;;
11763;SDS011;5939;56.522;14.950;2023-06-14T14:02:20;4.03;;;3.67;;
11763;SDS011;5939;56.522;14.950;2023-06-14T14:04:46;4.23;;;3.07;;
11763;SDS011;5939;56.522;14.950;2023-06-14T14:07:17;5.17;;;3.43;;
11763;SDS011;5939;56.522;14.950;2023-06-14T14:09:44;3.60;;;3.30;;
11763;SDS011;5939;56.522;14.950;2023-06-14T14:12:10;5.27;;;3.30;;
11763;SDS011;5939;56.522;14.950;2023-06-14T14:14:36;3.60;;;3.30;;
11763;SDS011;5939;56.522;14.950;2023-06-14T14:17:02;3.37;;;3.07;;
11763;SDS011;5939;56.522;14.950;2023-06-14T14:19:27;3.63;;;2.90;;
11763;SDS011;5939;56.522;14.950;2023-06-14T14:21:53;4.43;;;3.27;;
11763;SDS011;5939;56.522;14.950;2023-06-14T14:24:19;3.80;;;3.10;;
11763;SDS011;5939;56.522;14.950;2023-06-14T14:26:44;3.37;;;3.00;;
11763;SDS011;5939;56.522;14.950;2023-06-14T14:29:13;3.60;;;3.00;;
11763;SDS011;5939;56.522;14.950;2023-06-14T14:31:39;4.47;;;3.13;;
11763;SDS011;5939;56.522;14.950;2023-06-14T14:34:05;3.83;;;2.87;;
11763;SDS011;5939;56.522;14.950;2023-06-14T14:36:31;4.07;;;3.13;;
11763;SDS011;5939;56.522;14.950;2023-06-14T14:38:58;6.03;;;3.00;;
11763;SDS011;5939;56.522;14.950;2023-06-14T14:41:24;4.23;;;2.90;;
11763;SDS011;5939;56.522;14.950;2023-06-14T14:43:50;4.63;;;2.53;;
11763;SDS011;5939;56.522;14.950;2023-06-14T14:46:15;3.40;;;2.70;;
11763;SDS011;5939;56.522;14.950;2023-06-14T14:48:41;2.77;;;2.57;;
11763;SDS011;5939;56.522;14.950;2023-06-14T14:51:07;3.67;;;2.50;;
11763;SDS011;5939;56.522;14.950;2023-06-14T14:53:33;5.30;;;3.20;;
11763;SDS011;5939;56.522;14.950;2023-06-14T14:55:58;3.80;;;2.60;;
11763;SDS011;5939;56.522;14.950;2023-06-14T14:58:24;2.60;;;2.40;;
11763;SDS011;5939;56.522;14.950;2023-06-14T15:00:50;4.33;;;2.80;;
11763;SDS011;5939;56.522;14.950;2023-06-14T15:03:16;4.07;;;2.70;;